Terminal Aerodrome Forecast
Issued by NWS

Home | Current Version | Previous Version | Text Only | Print | Product List | Glossary On
Versions: 1 2 3 4 5 6 7 8 9 10 11 12 13 14 15 16 17 18 19 20 21 22
000
FTUS45 KBOU 191955 AAB
TAFAPA
TAF AMD
KAPA 191955Z 1920/2018 24018G28KT P6SM FEW120 SCT220
     FM200100 24013KT P6SM FEW120 SCT200
     FM200400 01015G25KT P6SM SCT080 SCT120
     FM200600 06010KT P6SM SCT080 SCT120
     FM200900 15010KT P6SM SCT120=

USA.gov is the U.S. government's official web portal to all federal, state and local government web resources and services.